Time;durP1;ratioP1;P1;durP2;ratioP2;P2;SDS_P1;SDS_P2;PMS_P1;PMS_P2;Temp;Humidity;BMP_temperature;BMP_pressure;BME280_temperature;BME280_humidity;BME280_pressure;Samples;Min_cycle;Max_cycle;Signal;HPM_P1;HPM_P2
2023/12/23 00:00:03;;;;;;;3.92;1.88;;;;;;;7.05;100.00;95957.34;5155464;27;20048;-73
2023/12/23 00:02:29;;;;;;;5.40;2.15;;;;;;;7.07;100.00;95949.28;5136915;27;20075;-73
2023/12/23 00:04:54;;;;;;;2.78;1.90;;;;;;;6.95;100.00;95939.53;5135371;27;20022;-72
2023/12/23 00:07:20;;;;;;;3.58;1.80;;;;;;;6.90;100.00;95954.97;5136751;27;20042;-73
2023/12/23 00:09:45;;;;;;;3.08;1.70;;;;;;;6.89;100.00;95951.44;5127856;27;20106;-73
2023/12/23 00:12:11;;;;;;;4.25;1.90;;;;;;;6.82;100.00;95939.59;5130098;27;20044;-73
2023/12/23 00:14:37;;;;;;;4.10;2.00;;;;;;;6.84;100.00;95916.41;5155285;27;20014;-73
2023/12/23 00:17:03;;;;;;;3.88;1.80;;;;;;;6.77;100.00;95920.44;5136277;27;20030;-73
2023/12/23 00:19:29;;;;;;;4.63;2.38;;;;;;;6.76;100.00;95917.94;5130594;27;20088;-73
2023/12/23 00:21:57;;;;;;;3.75;1.73;;;;;;;6.75;100.00;95930.34;5154232;27;20432;-73
2023/12/23 00:24:24;;;;;;;2.17;1.75;;;;;;;6.73;100.00;95934.94;5155229;27;20033;-73
2023/12/23 00:26:50;;;;;;;2.85;1.80;;;;;;;6.72;100.00;95927.06;5136578;27;20034;-73
2023/12/23 00:29:15;;;;;;;3.55;1.48;;;;;;;6.73;100.00;95911.03;5136728;27;20102;-73
2023/12/23 00:31:41;;;;;;;3.28;1.60;;;;;;;6.75;100.00;95903.78;5136471;27;20033;-73
2023/12/23 00:34:07;;;;;;;3.53;1.73;;;;;;;6.81;100.00;95913.97;5136429;27;20027;-73
2023/12/23 00:36:32;;;;;;;3.80;1.85;;;;;;;6.84;100.00;95915.53;5119079;27;20026;-73
2023/12/23 00:38:58;;;;;;;3.63;1.95;;;;;;;6.91;100.00;95928.28;5136091;27;20398;-73
2023/12/23 00:41:23;;;;;;;3.50;1.80;;;;;;;6.93;100.00;95913.06;5119090;27;20023;-73
2023/12/23 00:43:49;;;;;;;4.30;2.30;;;;;;;6.95;100.00;95916.44;5136350;27;20030;-73
2023/12/23 00:46:16;;;;;;;6.85;2.85;;;;;;;6.89;100.00;95902.78;5111547;27;20114;-73
2023/12/23 00:48:42;;;;;;;5.28;2.97;;;;;;;6.94;100.00;95890.00;5136510;27;20022;-73
2023/12/23 00:51:08;;;;;;;5.60;2.72;;;;;;;6.94;100.00;95874.91;5154416;27;20035;-73
2023/12/23 00:53:34;;;;;;;7.57;2.88;;;;;;;6.85;100.00;95870.28;5118941;27;20041;-73
2023/12/23 00:56:00;;;;;;;2.40;1.50;;;;;;;6.83;100.00;95858.06;5118664;27;20022;-73
2023/12/23 00:58:25;;;;;;;2.85;1.77;;;;;;;6.85;100.00;95874.75;5135908;27;20091;-73
2023/12/23 01:00:51;;;;;;;2.88;1.85;;;;;;;6.91;100.00;95906.16;5134905;27;20015;-73
2023/12/23 01:03:17;;;;;;;4.85;2.05;;;;;;;6.93;100.00;95899.78;5132662;27;20450;-73
2023/12/23 01:05:42;;;;;;;4.95;1.80;;;;;;;6.92;100.00;95881.31;5132929;27;20135;-73
2023/12/23 01:08:08;;;;;;;2.00;1.40;;;;;;;6.95;100.00;95897.03;5116744;27;20106;-73
2023/12/23 01:10:33;;;;;;;3.17;1.92;;;;;;;6.96;100.00;95907.53;5133495;27;20394;-73
2023/12/23 01:13:00;;;;;;;2.42;1.60;;;;;;;6.93;100.00;95921.03;5130472;27;20057;-73
2023/12/23 01:15:26;;;;;;;2.35;1.67;;;;;;;6.90;100.00;95923.91;5124827;27;20023;-73
2023/12/23 01:17:51;;;;;;;3.30;1.75;;;;;;;6.88;100.00;95903.75;5123536;27;20039;-73
2023/12/23 01:20:17;;;;;;;2.35;1.33;;;;;;;6.99;100.00;95891.34;5133226;27;20019;-73
2023/12/23 01:22:43;;;;;;;3.13;1.67;;;;;;;6.99;100.00;95878.06;5133364;27;20087;-73
2023/12/23 01:25:09;;;;;;;3.70;1.50;;;;;;;6.98;100.00;95879.00;5117130;27;20042;-73
2023/12/23 01:27:34;;;;;;;2.88;1.88;;;;;;;7.03;100.00;95868.91;5135403;27;20099;-73
2023/12/23 01:30:00;;;;;;;2.45;1.20;;;;;;;7.01;100.00;95870.81;5138084;27;20031;-73
2023/12/23 01:32:25;;;;;;;2.53;1.70;;;;;;;7.01;100.00;95859.34;5141906;27;20027;-73
2023/12/23 01:34:51;;;;;;;1.90;1.35;;;;;;;6.99;100.00;95862.13;5131658;27;20474;-72
2023/12/23 01:37:17;;;;;;;2.35;1.60;;;;;;;6.94;100.00;95847.47;5132400;27;20498;-72
2023/12/23 01:39:42;;;;;;;3.25;1.83;;;;;;;6.95;100.00;95844.69;5132198;27;20031;-73
2023/12/23 01:42:08;;;;;;;2.70;1.90;;;;;;;6.97;100.00;95845.44;5153769;27;20023;-73
2023/12/23 01:44:33;;;;;;;3.75;1.75;;;;;;;6.97;100.00;95847.25;5153758;27;20023;-73
2023/12/23 01:47:01;;;;;;;6.03;1.88;;;;;;;7.00;100.00;95858.50;5132163;27;20031;-73
2023/12/23 01:49:28;;;;;;;9.23;4.40;;;;;;;7.00;100.00;95858.50;5117662;27;20050;-73
2023/12/23 01:51:55;;;;;;;7.93;3.03;;;;;;;7.03;100.00;95855.63;5108568;27;20019;-73
2023/12/23 01:54:21;;;;;;;5.03;2.42;;;;;;;7.08;100.00;95836.66;5134856;27;20133;-73
2023/12/23 01:56:47;;;;;;;7.88;3.20;;;;;;;7.07;100.00;95832.31;5152680;27;20495;-73
2023/12/23 01:59:13;;;;;;;4.68;2.53;;;;;;;7.11;100.00;95830.28;5134750;27;20018;-73
2023/12/23 02:01:39;;;;;;;4.38;2.30;;;;;;;7.18;100.00;95823.50;5117098;27;20086;-74
2023/12/23 02:04:05;;;;;;;3.88;1.70;;;;;;;7.21;100.00;95809.97;5117384;27;20135;-73
2023/12/23 02:06:31;;;;;;;4.70;2.30;;;;;;;7.11;100.00;95803.69;5118535;27;20177;-73
2023/12/23 02:08:56;;;;;;;4.43;2.33;;;;;;;7.06;100.00;95799.56;5124861;27;20079;-73
2023/12/23 02:11:30;;;;;;;3.92;2.15;;;;;;;7.05;100.00;95805.84;5131636;27;20497;-73
2023/12/23 02:14:05;;;;;;;4.60;2.50;;;;;;;6.94;100.00;95787.22;5130367;27;20022;-72
2023/12/23 02:16:31;;;;;;;2.42;1.33;;;;;;;7.01;100.00;95790.25;5134614;27;20019;-72
2023/12/23 02:18:57;;;;;;;1.10;1.00;;;;;;;7.06;100.00;95778.31;5131862;27;20033;-73
2023/12/23 02:21:23;;;;;;;1.50;1.15;;;;;;;7.08;100.00;95792.31;5117178;27;20022;-72
2023/12/23 02:23:49;;;;;;;2.15;1.35;;;;;;;7.04;100.00;95771.41;5134449;27;20031;-73
2023/12/23 02:26:16;;;;;;;1.98;1.30;;;;;;;7.03;100.00;95777.69;5116586;27;20029;-73
2023/12/23 02:28:42;;;;;;;2.03;1.33;;;;;;;6.96;100.00;95763.16;5134201;27;20242;-73
2023/12/23 02:31:08;;;;;;;1.95;1.25;;;;;;;7.09;100.00;95775.41;5133850;27;20038;-74
2023/12/23 02:33:34;;;;;;;3.10;1.48;;;;;;;7.09;100.00;95764.78;5134161;27;20436;-74
2023/12/23 02:36:00;;;;;;;4.57;1.52;;;;;;;7.15;100.00;95771.44;5117076;27;20030;-73
2023/12/23 02:38:25;;;;;;;3.60;1.90;;;;;;;7.14;100.00;95753.78;5131377;27;20534;-73
2023/12/23 02:40:51;;;;;;;2.83;1.48;;;;;;;7.08;100.00;95754.25;5131971;27;20019;-72
2023/12/23 02:43:17;;;;;;;2.33;1.50;;;;;;;6.97;100.00;95759.53;5152453;27;20406;-74
2023/12/23 02:45:42;;;;;;;4.07;1.48;;;;;;;7.14;100.00;95752.94;5133655;27;20038;-73
2023/12/23 02:48:09;;;;;;;2.58;1.27;;;;;;;7.15;100.00;95733.34;5133940;27;20114;-73
2023/12/23 02:50:34;;;;;;;2.70;1.30;;;;;;;7.15;100.00;95739.53;5133820;27;20030;-73
2023/12/23 02:53:00;;;;;;;5.78;1.58;;;;;;;7.21;100.00;95733.72;5152154;27;20026;-73
2023/12/23 02:55:26;;;;;;;2.25;1.45;;;;;;;7.20;100.00;95752.47;5116641;27;20446;-73
2023/12/23 02:57:51;;;;;;;5.65;1.70;;;;;;;7.20;100.00;95745.31;5133636;27;20018;-73
2023/12/23 03:00:17;;;;;;;3.65;1.60;;;;;;;7.41;100.00;95750.81;5133779;27;20059;-73
2023/12/23 03:02:43;;;;;;;2.47;1.70;;;;;;;7.37;100.00;95742.22;5133160;27;20034;-73
2023/12/23 03:05:08;;;;;;;2.25;1.13;;;;;;;7.45;100.00;95747.75;5125787;27;20492;-73
2023/12/23 03:07:34;;;;;;;2.35;1.55;;;;;;;7.49;100.00;95753.69;5115424;27;20127;-73
2023/12/23 03:09:59;;;;;;;2.22;1.20;;;;;;;7.51;100.00;95747.28;5151706;27;20450;-73
2023/12/23 03:12:25;;;;;;;2.97;1.40;;;;;;;7.54;100.00;95738.22;5152420;27;20113;-72
2023/12/23 03:14:51;;;;;;;2.30;1.50;;;;;;;7.58;100.00;95748.50;5142025;27;20035;-73
2023/12/23 03:17:16;;;;;;;1.60;1.10;;;;;;;7.55;100.00;95732.78;5113531;27;20023;-73
2023/12/23 03:19:42;;;;;;;2.28;1.10;;;;;;;7.46;100.00;95730.00;5129881;27;20118;-73
2023/12/23 03:22:07;;;;;;;2.20;1.40;;;;;;;7.47;100.00;95724.56;5121194;27;20027;-73
2023/12/23 03:24:33;;;;;;;4.65;2.05;;;;;;;7.56;100.00;95733.63;5146479;27;20053;-73
2023/12/23 03:26:59;;;;;;;4.28;1.85;;;;;;;7.47;100.00;95734.38;5133243;27;20034;-72
2023/12/23 03:29:24;;;;;;;3.67;1.60;;;;;;;7.59;100.00;95763.50;5124562;27;20022;-73
2023/12/23 03:31:50;;;;;;;4.32;2.00;;;;;;;7.69;100.00;95755.63;5115399;27;20035;-73
2023/12/23 03:34:15;;;;;;;2.97;1.83;;;;;;;7.78;100.00;95743.41;5143581;27;20101;-73
2023/12/23 03:36:41;;;;;;;6.05;2.17;;;;;;;7.89;100.00;95730.09;5124658;27;20031;-73
2023/12/23 03:39:07;;;;;;;3.25;1.73;;;;;;;7.97;100.00;95723.16;5143044;27;20069;-73
2023/12/23 03:41:32;;;;;;;2.42;1.60;;;;;;;7.92;100.00;95698.75;5151890;27;20026;-72
2023/12/23 03:43:58;;;;;;;3.35;1.95;;;;;;;7.97;100.00;95712.53;5151775;27;20041;-72
2023/12/23 03:46:24;;;;;;;7.25;2.08;;;;;;;7.98;100.00;95711.56;5151734;27;20031;-73
2023/12/23 03:48:49;;;;;;;4.18;2.22;;;;;;;7.97;100.00;95704.53;5124770;27;20447;-73
2023/12/23 03:51:15;;;;;;;4.82;2.33;;;;;;;7.92;100.00;95703.22;5151188;27;20014;-73
2023/12/23 03:53:42;;;;;;;3.10;1.90;;;;;;;7.95;100.00;95706.50;5108908;28;20487;-73
2023/12/23 03:56:07;;;;;;;2.58;1.67;;;;;;;8.01;100.00;95687.34;5130763;28;20034;-73
2023/12/23 03:58:33;;;;;;;4.15;1.33;;;;;;;8.15;100.00;95700.38;5126570;27;20019;-72
2023/12/23 04:00:58;;;;;;;1.98;1.23;;;;;;;8.12;100.00;95692.63;5115100;28;20107;-73
2023/12/23 04:03:24;;;;;;;2.13;1.20;;;;;;;8.12;100.00;95689.97;5131029;28;20501;-73
2023/12/23 04:05:49;;;;;;;6.75;2.72;;;;;;;8.09;100.00;95690.22;5126976;27;20039;-73
2023/12/23 04:08:16;;;;;;;45.45;11.65;;;;;;;8.12;100.00;95687.31;5115499;27;20523;-73
2023/12/23 04:10:42;;;;;;;14.38;4.18;;;;;;;8.01;100.00;95666.06;5124617;27;20542;-73
2023/12/23 04:13:08;;;;;;;20.52;6.53;;;;;;;8.00;100.00;95674.16;5141064;27;20035;-73
2023/12/23 04:15:33;;;;;;;4.65;2.45;;;;;;;8.02;100.00;95678.41;5126142;27;20027;-72
2023/12/23 04:18:02;;;;;;;4.50;2.38;;;;;;;8.00;100.00;95664.34;5133534;27;20037;-73
2023/12/23 04:20:27;;;;;;;5.93;1.90;;;;;;;7.89;100.00;95677.72;5155205;27;20023;-73
2023/12/23 04:22:53;;;;;;;4.18;2.33;;;;;;;7.88;100.00;95689.31;5133773;27;20028;-73
2023/12/23 04:25:19;;;;;;;3.80;1.92;;;;;;;7.85;100.00;95683.38;5127730;27;20027;-73
2023/12/23 04:27:44;;;;;;;4.10;2.10;;;;;;;7.90;100.00;95706.03;5116114;27;20023;-73
2023/12/23 04:30:11;;;;;;;9.00;3.13;;;;;;;7.87;100.00;95690.31;5125967;27;20027;-73
2023/12/23 04:32:36;;;;;;;4.38;2.40;;;;;;;8.03;100.00;95712.03;5125227;27;20068;-73
2023/12/23 04:35:03;;;;;;;4.78;2.60;;;;;;;8.05;100.00;95698.59;5134162;27;20062;-73
2023/12/23 04:37:29;;;;;;;5.10;2.45;;;;;;;8.10;100.00;95691.91;5133956;27;20026;-73
2023/12/23 04:39:54;;;;;;;6.90;2.80;;;;;;;8.41;97.03;95662.78;5119235;27;20405;-73
2023/12/23 04:42:20;;;;;;;4.20;2.20;;;;;;;8.88;89.77;95683.63;5136286;27;20059;-73
2023/12/23 04:44:45;;;;;;;3.08;1.83;;;;;;;9.07;87.86;95721.06;5136215;27;20110;-73
2023/12/23 04:47:11;;;;;;;3.45;1.80;;;;;;;9.20;85.45;95699.50;5119010;27;20026;-73
2023/12/23 04:49:38;;;;;;;2.80;1.50;;;;;;;9.54;81.43;95706.28;5136058;27;20022;-73
2023/12/23 04:52:04;;;;;;;6.50;1.58;;;;;;;9.67;80.02;95719.41;5127736;27;20471;-73
2023/12/23 04:54:29;;;;;;;7.28;1.60;;;;;;;9.77;77.02;95707.78;5112606;27;20031;-73
2023/12/23 04:56:55;;;;;;;4.78;1.70;;;;;;;9.75;77.12;95703.56;5098351;27;20023;-73
2023/12/23 04:59:20;;;;;;;2.90;1.33;;;;;;;9.72;76.88;95703.84;5133642;27;20023;-73
2023/12/23 05:01:46;;;;;;;2.53;1.50;;;;;;;9.74;77.03;95710.72;5115303;27;20115;-73
2023/12/23 05:04:11;;;;;;;3.42;1.63;;;;;;;9.69;77.05;95702.25;5115259;27;20398;-74
2023/12/23 05:06:37;;;;;;;2.75;1.70;;;;;;;9.70;76.96;95689.75;5119258;27;20053;-73
2023/12/23 05:09:05;;;;;;;2.75;1.75;;;;;;;9.64;77.67;95676.97;5136007;27;20034;-74
2023/12/23 05:11:31;;;;;;;4.85;2.03;;;;;;;9.60;78.27;95699.56;5118648;27;20062;-74
2023/12/23 05:13:57;;;;;;;6.50;1.90;;;;;;;9.78;76.13;95695.28;5135685;27;20155;-74
2023/12/23 05:16:22;;;;;;;1.65;0.95;;;;;;;9.95;73.88;95717.81;5133744;27;20041;-74
2023/12/23 05:18:48;;;;;;;2.13;1.30;;;;;;;10.06;72.98;95729.22;5117363;27;20026;-74
2023/12/23 05:21:14;;;;;;;1.73;0.90;;;;;;;10.07;72.00;95744.28;5135597;27;20018;-73
2023/12/23 05:23:40;;;;;;;1.83;1.35;;;;;;;10.04;71.33;95752.56;5135306;27;20183;-73
2023/12/23 05:26:05;;;;;;;5.15;1.30;;;;;;;10.10;71.08;95733.31;5154081;27;20022;-74
2023/12/23 05:28:31;;;;;;;2.38;1.40;;;;;;;10.14;70.87;95737.44;5153963;27;21438;-73
2023/12/23 05:30:56;;;;;;;1.88;1.17;;;;;;;10.02;71.47;95759.88;5134017;27;20022;-74
2023/12/23 05:33:24;;;;;;;3.83;1.23;;;;;;;9.87;72.99;95747.88;5138228;27;20115;-74
2023/12/23 05:35:51;;;;;;;1.13;0.95;;;;;;;9.80;73.45;95749.38;5114662;27;20034;-74
2023/12/23 05:38:16;;;;;;;2.90;1.55;;;;;;;9.76;74.25;95751.47;5131968;27;20443;-74
2023/12/23 05:40:42;;;;;;;1.75;1.17;;;;;;;9.82;73.86;95766.09;5133995;27;20026;-74
2023/12/23 05:43:07;;;;;;;3.25;1.30;;;;;;;10.01;71.79;95760.84;5130802;27;20130;-74
2023/12/23 05:45:33;;;;;;;3.60;1.40;;;;;;;9.99;72.36;95767.31;5153569;27;20023;-75
2023/12/23 05:47:59;;;;;;;4.70;1.52;;;;;;;10.02;72.09;95762.53;5135109;27;20102;-74
2023/12/23 05:50:25;;;;;;;3.13;1.23;;;;;;;10.09;73.42;95774.34;5134920;27;20023;-73
2023/12/23 05:52:50;;;;;;;2.42;1.63;;;;;;;10.05;72.63;95767.63;5133459;27;20474;-73
2023/12/23 05:55:16;;;;;;;1.75;1.00;;;;;;;10.01;73.24;95765.34;5153467;27;20027;-73
2023/12/23 05:57:41;;;;;;;6.15;1.85;;;;;;;10.00;73.85;95780.50;5134945;27;20083;-73
2023/12/23 06:00:08;;;;;;;2.22;1.38;;;;;;;10.05;73.62;95767.63;5134993;27;20109;-73
2023/12/23 06:02:35;;;;;;;10.40;3.83;;;;;;;10.01;74.63;95760.00;5137000;27;20049;-75
2023/12/23 06:05:00;;;;;;;2.65;1.90;;;;;;;9.95;75.54;95765.88;5117003;27;20389;-74
2023/12/23 06:07:26;;;;;;;4.43;2.88;;;;;;;9.96;76.83;95783.59;5124883;27;20058;-73
2023/12/23 06:09:51;;;;;;;3.95;1.80;;;;;;;9.90;77.54;95768.13;5113730;27;20019;-75
2023/12/23 06:12:17;;;;;;;4.72;1.90;;;;;;;9.97;75.66;95764.75;5114050;27;20019;-74
2023/12/23 06:14:43;;;;;;;5.05;2.10;;;;;;;10.04;74.37;95781.94;5099690;27;20037;-74
2023/12/23 06:17:11;;;;;;;4.38;2.60;;;;;;;10.02;77.46;95783.06;5134419;27;20378;-73
2023/12/23 06:19:36;;;;;;;10.50;5.20;;;;;;;10.04;75.45;95799.78;5129817;27;20034;-74
2023/12/23 06:22:02;;;;;;;6.78;3.22;;;;;;;10.15;79.56;95787.19;5132736;27;20026;-73
2023/12/23 06:24:28;;;;;;;5.60;2.47;;;;;;;10.13;78.93;95777.59;5113635;27;20027;-74
2023/12/23 06:26:53;;;;;;;4.82;2.13;;;;;;;10.09;75.52;95778.88;5113674;27;20030;-74
2023/12/23 06:29:19;;;;;;;30.95;17.27;;;;;;;10.10;76.51;95786.75;5116775;27;20038;-75
2023/12/23 06:31:44;;;;;;;7.85;3.63;;;;;;;10.10;75.59;95793.91;5132775;27;20027;-74
2023/12/23 06:34:10;;;;;;;5.35;2.30;;;;;;;10.16;78.14;95790.72;5138304;27;20034;-74
2023/12/23 06:36:35;;;;;;;4.53;2.13;;;;;;;10.21;75.87;95801.88;5128441;27;20103;-74
2023/12/23 06:39:01;;;;;;;3.72;2.72;;;;;;;10.27;76.85;95804.81;5113649;27;20387;-74
2023/12/23 06:41:27;;;;;;;7.35;3.10;;;;;;;10.31;77.55;95816.94;5135743;27;20025;-74
2023/12/23 06:43:52;;;;;;;7.95;3.38;;;;;;;10.34;77.32;95805.97;5116186;27;20053;-73
2023/12/23 06:46:18;;;;;;;5.65;2.30;;;;;;;10.40;77.11;95798.41;5096653;27;20489;-74
2023/12/23 06:48:44;;;;;;;5.20;1.85;;;;;;;10.40;76.69;95809.09;5113623;27;20082;-74
2023/12/23 06:51:09;;;;;;;5.57;3.03;;;;;;;10.48;78.04;95812.78;5113425;27;20027;-74
2023/12/23 06:53:35;;;;;;;6.22;2.90;;;;;;;10.51;76.17;95796.47;5100304;27;20031;-73
2023/12/23 06:56:04;;;;;;;7.55;3.58;;;;;;;10.59;75.26;95822.47;5137647;27;20055;-76
2023/12/23 06:58:30;;;;;;;17.63;7.70;;;;;;;10.63;78.52;95818.56;5119945;27;20019;-78
2023/12/23 07:00:56;;;;;;;9.27;3.22;;;;;;;10.58;78.83;95813.63;5114113;27;20023;-78
2023/12/23 07:03:21;;;;;;;22.95;13.88;;;;;;;10.61;79.62;95833.91;5108360;27;20030;-74
2023/12/23 07:05:47;;;;;;;7.40;3.92;;;;;;;10.62;80.06;95848.94;5116473;27;20070;-73
2023/12/23 07:08:12;;;;;;;6.70;2.72;;;;;;;10.58;81.05;95876.97;5127724;27;20031;-74
2023/12/23 07:10:38;;;;;;;9.38;3.63;;;;;;;10.62;89.38;95891.72;5135325;27;20030;-72
2023/12/23 07:13:04;;;;;;;7.80;2.92;;;;;;;10.51;86.38;95891.84;5143726;27;20033;-80
2023/12/23 07:15:29;;;;;;;3.65;2.35;;;;;;;10.37;85.04;95889.53;5116683;27;20474;-81
2023/12/23 07:17:55;;;;;;;5.20;2.90;;;;;;;10.31;87.85;95912.28;5133959;27;20053;-81
2023/12/23 07:20:21;;;;;;;9.55;3.90;;;;;;;10.18;93.22;95917.03;5111765;27;20109;-82
2023/12/23 07:22:47;;;;;;;7.68;2.35;;;;;;;10.27;91.38;95890.31;5113745;27;20389;-74
2023/12/23 07:25:13;;;;;;;7.68;4.07;;;;;;;10.44;89.75;95896.88;5113362;27;20069;-75
2023/12/23 07:27:39;;;;;;;9.35;3.50;;;;;;;10.83;85.33;95919.22;5130332;27;20103;-75
2023/12/23 07:30:05;;;;;;;6.75;3.85;;;;;;;11.16;82.05;95924.25;5130889;27;20470;-75
2023/12/23 07:32:31;;;;;;;16.35;5.53;;;;;;;11.16;83.44;95937.63;5129787;27;20027;-75
2023/12/23 07:34:57;;;;;;;12.43;4.43;;;;;;;10.83;85.05;95935.28;5128617;27;20136;-74
2023/12/23 07:37:22;;;;;;;6.13;3.05;;;;;;;10.65;87.05;95952.94;5133516;27;20029;-75
2023/12/23 07:39:48;;;;;;;16.27;6.57;;;;;;;10.68;91.34;95961.53;5133499;27;20023;-75
2023/12/23 07:42:13;;;;;;;11.13;5.40;;;;;;;10.62;94.89;95963.91;5137125;27;20026;-75
2023/12/23 07:44:39;;;;;;;8.60;4.35;;;;;;;10.71;96.98;95981.81;5130013;27;20559;-74
2023/12/23 07:47:05;;;;;;;13.68;4.70;;;;;;;10.58;98.04;95975.88;5129150;27;20060;-75
2023/12/23 07:49:32;;;;;;;8.18;3.80;;;;;;;10.48;97.46;95964.28;5133459;27;20087;-75
2023/12/23 07:51:58;;;;;;;8.82;3.83;;;;;;;10.45;97.06;95961.88;5128779;27;20019;-74
2023/12/23 07:54:24;;;;;;;3.25;2.10;;;;;;;10.47;95.13;95970.59;5154900;27;20106;-77
2023/12/23 07:56:49;;;;;;;3.63;1.80;;;;;;;10.60;94.12;95973.91;5134312;27;20105;-76
2023/12/23 07:59:15;;;;;;;3.58;1.80;;;;;;;10.59;96.39;95997.09;5133133;27;20461;-75
2023/12/23 08:01:47;;;;;;;3.38;1.98;;;;;;;10.50;97.25;96007.75;5136258;27;20035;-75
2023/12/23 08:04:14;;;;;;;5.03;2.10;;;;;;;10.38;99.82;96031.03;5117271;27;20677;-75
2023/12/23 08:06:40;;;;;;;5.30;2.72;;;;;;;10.33;100.00;96046.63;5132267;27;20043;-75
2023/12/23 08:09:05;;;;;;;3.40;2.10;;;;;;;10.08;100.00;96050.50;5131246;27;20121;-77
2023/12/23 08:11:31;;;;;;;9.15;3.28;;;;;;;10.09;100.00;96046.81;5133153;27;20038;-74
2023/12/23 08:13:57;;;;;;;5.88;3.80;;;;;;;10.05;100.00;96045.41;5129735;27;20077;-76
2023/12/23 08:16:23;;;;;;;5.60;2.70;;;;;;;10.24;100.00;96060.78;5134685;27;20112;-74
2023/12/23 08:18:48;;;;;;;3.92;2.30;;;;;;;10.27;100.00;96060.50;5132928;27;20029;-75
2023/12/23 08:21:14;;;;;;;4.10;2.05;;;;;;;10.46;100.00;96054.44;5131911;27;20023;-82
2023/12/23 08:23:40;;;;;;;5.47;2.42;;;;;;;10.44;100.00;96037.69;5116249;27;20469;-82
2023/12/23 08:26:07;;;;;;;4.68;2.70;;;;;;;10.60;100.00;96072.81;5117181;27;20030;-76
2023/12/23 08:28:33;;;;;;;4.28;1.83;;;;;;;10.14;100.00;96098.09;5116328;27;20050;-74
2023/12/23 08:30:58;;;;;;;3.17;2.08;;;;;;;9.97;100.00;96121.78;5133882;27;20053;-75
2023/12/23 08:33:24;;;;;;;2.90;2.10;;;;;;;9.98;100.00;96155.53;5129970;27;20027;-74
2023/12/23 08:35:49;;;;;;;4.75;2.35;;;;;;;9.94;100.00;96178.13;5129631;27;20382;-72
2023/12/23 08:38:15;;;;;;;16.00;5.13;;;;;;;9.88;100.00;96192.81;5133840;27;20466;-72
2023/12/23 08:40:41;;;;;;;4.60;2.63;;;;;;;9.50;100.00;96187.06;5152099;27;20064;-72
2023/12/23 08:43:06;;;;;;;7.15;2.83;;;;;;;9.22;100.00;96228.41;5133803;27;20034;-72
2023/12/23 08:45:32;;;;;;;7.43;3.55;;;;;;;9.01;100.00;96254.88;5151976;27;20075;-73
2023/12/23 08:47:57;;;;;;;6.60;4.65;;;;;;;8.74;100.00;96267.66;5133330;27;20027;-72
2023/12/23 08:50:23;;;;;;;7.05;4.30;;;;;;;8.19;100.00;96293.03;5131086;27;20073;-72
2023/12/23 08:52:49;;;;;;;2.88;2.00;;;;;;;7.85;100.00;96288.41;5131766;27;20039;-72
2023/12/23 08:55:15;;;;;;;3.70;2.58;;;;;;;7.48;100.00;96290.16;5131341;27;20027;-72
2023/12/23 08:57:41;;;;;;;9.77;2.53;;;;;;;7.52;100.00;96306.75;5129883;27;20034;-72
2023/12/23 09:00:07;;;;;;;4.63;2.83;;;;;;;7.51;100.00;96323.69;5129927;27;20094;-72
2023/12/23 09:02:33;;;;;;;6.70;2.60;;;;;;;7.36;100.00;96349.53;5130802;27;20030;-72
2023/12/23 09:04:59;;;;;;;9.48;2.70;;;;;;;7.50;100.00;96367.22;5128349;27;20023;-73
2023/12/23 09:07:25;;;;;;;9.88;4.88;;;;;;;7.44;100.00;96357.84;5110921;27;20043;-72
2023/12/23 09:09:50;;;;;;;19.02;9.35;;;;;;;7.44;100.00;96365.84;5131250;27;20411;-72
2023/12/23 09:12:19;;;;;;;18.48;9.27;;;;;;;7.29;100.00;96352.72;5130772;27;20120;-71
2023/12/23 09:14:45;;;;;;;14.13;6.85;;;;;;;7.19;100.00;96360.47;5130894;27;20030;-72
2023/12/23 09:17:10;;;;;;;11.60;6.32;;;;;;;7.15;100.00;96350.13;5130897;27;20031;-72
2023/12/23 09:19:36;;;;;;;12.23;5.13;;;;;;;7.09;100.00;96338.97;5128758;27;20081;-73
2023/12/23 09:22:02;;;;;;;10.10;5.28;;;;;;;7.09;100.00;96349.59;5129407;27;20095;-73
2023/12/23 09:24:27;;;;;;;10.82;5.10;;;;;;;7.31;100.00;96340.16;5130418;27;20057;-73
2023/12/23 09:26:53;;;;;;;6.90;4.32;;;;;;;7.39;100.00;96335.16;5130590;27;20404;-73
2023/12/23 09:29:19;;;;;;;7.25;4.05;;;;;;;7.41;100.00;96363.34;5131974;27;20042;-73
2023/12/23 09:31:44;;;;;;;9.98;4.32;;;;;;;7.39;100.00;96401.66;5114828;27;20034;-73
2023/12/23 09:34:10;;;;;;;8.18;4.13;;;;;;;7.31;100.00;96388.03;5147397;27;20035;-74
2023/12/23 09:36:35;;;;;;;6.80;4.55;;;;;;;7.27;100.00;96386.53;5130484;27;20031;-76
2023/12/23 09:39:02;;;;;;;40.72;21.15;;;;;;;7.22;100.00;96400.16;5131644;27;20026;-74
2023/12/23 09:41:27;;;;;;;21.70;7.97;;;;;;;7.18;100.00;96369.41;5151073;27;20035;-74
2023/12/23 09:43:53;;;;;;;17.23;9.38;;;;;;;7.16;100.00;96373.13;5132260;27;20023;-74
2023/12/23 09:46:19;;;;;;;14.00;7.40;;;;;;;7.30;100.00;96387.19;5132530;27;20114;-73
2023/12/23 09:48:45;;;;;;;12.50;5.57;;;;;;;7.23;100.00;96380.56;5150491;27;20552;-73
2023/12/23 09:51:12;;;;;;;11.65;5.97;;;;;;;7.33;100.00;96384.31;5132135;27;20026;-73
2023/12/23 09:53:38;;;;;;;9.77;5.60;;;;;;;7.35;100.00;96389.53;5131974;27;20019;-73
2023/12/23 09:56:04;;;;;;;12.38;6.43;;;;;;;7.36;100.00;96399.22;5121870;27;20039;-73
2023/12/23 09:58:30;;;;;;;16.20;8.07;;;;;;;7.37;100.00;96387.63;5128620;27;20471;-73
2023/12/23 10:00:55;;;;;;;9.57;6.05;;;;;;;7.34;100.00;96419.75;5129957;27;20063;-73
2023/12/23 10:03:22;;;;;;;16.00;7.90;;;;;;;7.19;100.00;96423.44;5129334;27;20030;-74
2023/12/23 10:05:49;;;;;;;21.20;10.52;;;;;;;7.11;100.00;96423.09;5128212;27;20047;-74
2023/12/23 10:08:14;;;;;;;32.85;18.77;;;;;;;6.96;100.00;96420.47;5128741;27;20030;-73
2023/12/23 10:10:40;;;;;;;25.10;13.40;;;;;;;7.03;100.00;96419.13;5129571;27;20027;-72
2023/12/23 10:13:06;;;;;;;26.10;13.90;;;;;;;6.92;100.00;96424.28;5129390;27;20035;-73
2023/12/23 10:15:32;;;;;;;21.50;11.02;;;;;;;6.79;100.00;96418.09;5128338;27;20033;-73
2023/12/23 10:18:03;;;;;;;19.40;10.48;;;;;;;6.76;100.00;96434.25;5129242;27;20050;-72
2023/12/23 10:20:28;;;;;;;13.65;8.18;;;;;;;6.68;100.00;96412.59;5132375;27;20127;-72
2023/12/23 10:22:54;;;;;;;23.92;12.38;;;;;;;6.74;100.00;96419.31;5131905;27;20528;-72
2023/12/23 10:25:19;;;;;;;21.98;13.13;;;;;;;6.96;100.00;96448.88;5150186;27;20477;-72
2023/12/23 10:27:48;;;;;;;23.30;14.98;;;;;;;6.96;100.00;96463.00;5131157;27;20034;-72
2023/12/23 10:30:15;;;;;;;8.15;5.10;;;;;;;6.85;100.00;96454.91;5128733;27;20090;-73
2023/12/23 10:32:41;;;;;;;13.45;7.03;;;;;;;6.76;100.00;96466.13;5129773;27;20034;-72
2023/12/23 10:35:08;;;;;;;19.83;9.32;;;;;;;6.85;100.00;96462.00;5114189;27;20030;-72
2023/12/23 10:37:34;;;;;;;14.43;7.07;;;;;;;6.92;100.00;96450.88;5132037;27;20049;-72
2023/12/23 10:40:21;;;;;;;11.05;6.28;;;;;;;7.08;100.00;96469.31;5149482;27;20045;-73
2023/12/23 10:42:47;;;;;;;12.35;6.50;;;;;;;7.24;100.00;96493.09;5131388;27;20475;-72
2023/12/23 10:45:13;;;;;;;5.28;3.05;;;;;;;7.28;100.00;96491.97;5131207;27;20090;-73
2023/12/23 10:47:39;;;;;;;41.92;15.18;;;;;;;7.30;100.00;96463.44;5149879;27;20027;-72
2023/12/23 10:50:07;;;;;;;28.05;10.63;;;;;;;7.21;100.00;96467.56;5130969;27;20026;-72
2023/12/23 10:52:33;;;;;;;8.15;4.45;;;;;;;7.31;100.00;96468.69;5130904;27;20025;-73
2023/12/23 10:55:03;;;;;;;12.63;5.93;;;;;;;7.42;100.00;96475.94;5129236;27;20105;-72
2023/12/23 10:57:29;;;;;;;6.88;4.05;;;;;;;7.57;100.00;96465.13;5149483;27;20133;-73
2023/12/23 10:59:55;;;;;;;14.00;6.15;;;;;;;7.42;100.00;96454.66;5123471;27;20075;-73
2023/12/23 11:02:28;;;;;;;18.23;8.05;;;;;;;7.58;100.00;96458.00;5138774;27;20072;-73
2023/12/23 11:04:54;;;;;;;13.98;6.97;;;;;;;7.74;100.00;96445.34;5128500;27;20525;-73
2023/12/23 11:07:24;;;;;;;11.35;6.25;;;;;;;7.99;100.00;96447.19;5130327;27;20045;-73
2023/12/23 11:09:50;;;;;;;14.63;8.65;;;;;;;8.40;100.00;96457.66;5130779;27;20485;-73
2023/12/23 11:12:17;;;;;;;17.15;8.52;;;;;;;8.83;100.00;96453.56;5130476;27;20035;-73
2023/12/23 11:14:43;;;;;;;16.95;8.63;;;;;;;9.01;100.00;96441.56;5114016;27;20077;-73
2023/12/23 11:17:26;;;;;;;9.25;4.55;;;;;;;8.73;100.00;96427.72;5130528;27;20468;-73
2023/12/23 11:19:56;;;;;;;11.40;4.85;;;;;;;8.62;100.00;96425.81;5130507;27;20021;-73
2023/12/23 11:22:37;;;;;;;20.65;12.27;;;;;;;8.55;100.00;96433.41;5123787;27;20068;-73
2023/12/23 11:25:03;;;;;;;10.55;6.40;;;;;;;8.52;100.00;96440.78;5136885;27;20198;-73